createdAt,value
2022-12-23T00:00:43.207Z,8.9
2022-12-23T00:01:43.368Z,8.9
2022-12-23T00:02:43.570Z,8.9
2022-12-23T00:03:43.445Z,8.9
2022-12-23T00:04:43.408Z,8.9
2022-12-23T00:05:43.465Z,8.9
2022-12-23T00:06:43.520Z,8.8
2022-12-23T00:07:43.585Z,8.8
2022-12-23T00:08:43.692Z,8.8
2022-12-23T00:09:43.704Z,8.8
2022-12-23T00:10:43.760Z,8.9
2022-12-23T00:11:43.820Z,8.9
2022-12-23T00:12:43.861Z,8.9
2022-12-23T00:13:43.881Z,8.8
2022-12-23T00:14:43.912Z,8.8
2022-12-23T00:15:43.977Z,8.8
2022-12-23T00:16:48.256Z,8.8
2022-12-23T00:17:44.162Z,8.8
2022-12-23T00:18:44.197Z,8.8
2022-12-23T00:19:44.295Z,8.8
2022-12-23T00:20:44.354Z,8.8
2022-12-23T00:21:44.341Z,8.8
2022-12-23T00:22:44.424Z,8.8
2022-12-23T00:23:44.509Z,8.9
2022-12-23T00:24:44.517Z,8.9
2022-12-23T00:25:44.736Z,8.8
2022-12-23T00:26:44.649Z,8.8
2022-12-23T00:27:44.949Z,8.8
2022-12-23T00:28:45.271Z,8.8
2022-12-23T00:29:44.781Z,8.7
2022-12-23T00:30:44.845Z,8.8
2022-12-23T00:31:44.933Z,8.8
2022-12-23T00:32:45.050Z,8.8
2022-12-23T00:33:45.060Z,8.8
2022-12-23T00:34:45.110Z,8.8
2022-12-23T00:35:45.226Z,8.8
2022-12-23T00:36:45.211Z,8.8
2022-12-23T00:37:45.296Z,8.8
2022-12-23T00:38:45.313Z,8.8
2022-12-23T00:39:45.772Z,8.8
2022-12-23T00:40:45.457Z,8.9
2022-12-23T00:41:45.534Z,8.8
2022-12-23T00:42:45.623Z,8.8
2022-12-23T00:43:45.713Z,8.8
2022-12-23T00:44:45.818Z,8.8
2022-12-23T00:45:46.028Z,8.9
2022-12-23T00:46:45.939Z,8.8
2022-12-23T00:47:46.015Z,8.8
2022-12-23T00:48:46.039Z,8.8
2022-12-23T00:49:46.119Z,8.8
2022-12-23T00:50:46.267Z,8.8
2022-12-23T00:51:46.314Z,8.8
2022-12-23T00:52:46.436Z,8.8
2022-12-23T00:53:46.429Z,8.8
2022-12-23T00:54:46.562Z,8.8
2022-12-23T00:55:46.565Z,8.8
2022-12-23T00:56:46.568Z,8.8
2022-12-23T00:57:46.700Z,8.7
2022-12-23T00:58:46.678Z,8.7
2022-12-23T00:59:46.810Z,8.8
2022-12-23T01:00:46.918Z,8.9
2022-12-23T01:01:46.949Z,8.9
2022-12-23T01:02:47.154Z,8.9
2022-12-23T01:03:47.087Z,8.9
2022-12-23T01:04:47.080Z,8.9
2022-12-23T01:05:47.111Z,8.9
2022-12-23T01:06:47.082Z,8.9
2022-12-23T01:07:47.088Z,8.8
2022-12-23T01:08:47.113Z,8.8
2022-12-23T01:09:47.170Z,8.8
2022-12-23T01:10:47.224Z,8.8
2022-12-23T01:11:47.276Z,8.8
2022-12-23T01:12:47.320Z,8.7
2022-12-23T01:13:47.403Z,8.8
2022-12-23T01:14:48.308Z,8.8
2022-12-23T01:15:48.365Z,8.8
2022-12-23T01:16:48.409Z,8.8
2022-12-23T01:17:48.431Z,8.8
2022-12-23T01:18:48.471Z,8.8
2022-12-23T01:19:48.564Z,8.8
2022-12-23T01:20:48.644Z,8.8
2022-12-23T01:21:48.669Z,8.8
2022-12-23T01:22:48.757Z,8.8
2022-12-23T01:23:48.807Z,8.9
2022-12-23T01:24:48.854Z,8.8
2022-12-23T01:25:48.864Z,8.8
2022-12-23T01:26:48.904Z,8.8
2022-12-23T01:27:48.968Z,8.9
2022-12-23T01:28:58.235Z,8.9
2022-12-23T01:30:00.038Z,8.9
2022-12-23T01:30:56.314Z,8.9
2022-12-23T01:31:49.257Z,8.9
2022-12-23T01:32:58.786Z,8.8
2022-12-23T01:33:49.390Z,8.8
2022-12-23T01:35:03.852Z,8.8
2022-12-23T01:35:49.731Z,8.8
2022-12-23T01:37:06.752Z,8.8
2022-12-23T01:37:49.660Z,8.8
2022-12-23T01:39:01.077Z,8.8
2022-12-23T01:39:49.766Z,8.9
2022-12-23T01:40:50.186Z,8.9
2022-12-23T01:42:01.497Z,8.9
2022-12-23T01:42:50.375Z,8.9
2022-12-23T01:43:50.071Z,8.8
2022-12-23T01:45:16.158Z,8.8
2022-12-23T01:45:50.241Z,8.8
2022-12-23T01:47:08.639Z,8.8
2022-12-23T01:48:02.107Z,8.8
2022-12-23T01:49:07.030Z,8.8
2022-12-23T01:49:50.369Z,8.8
2022-12-23T01:50:59.347Z,8.8
2022-12-23T01:51:50.491Z,8.8
2022-12-23T01:52:50.554Z,8.8
2022-12-23T01:54:00.245Z,8.8
2022-12-23T01:54:50.612Z,8.8
2022-12-23T01:55:50.698Z,8.8
2022-12-23T01:57:03.487Z,8.8
2022-12-23T01:57:50.792Z,8.8
2022-12-23T01:58:50.863Z,8.8
2022-12-23T02:00:01.258Z,8.8
2022-12-23T02:00:51.129Z,8.8
2022-12-23T02:01:51.186Z,8.9
2022-12-23T02:03:03.580Z,8.9
2022-12-23T02:03:51.136Z,8.9
2022-12-23T02:04:51.201Z,8.9
2022-12-23T02:06:01.962Z,8.9
2022-12-23T02:06:51.340Z,8.9
2022-12-23T02:07:51.374Z,8.8
2022-12-23T02:09:03.592Z,8.8
2022-12-23T02:09:51.647Z,8.8
2022-12-23T02:10:51.557Z,8.8
2022-12-23T02:11:59.756Z,8.8
2022-12-23T02:12:51.664Z,8.8
2022-12-23T02:13:51.746Z,8.8
2022-12-23T02:14:52.885Z,8.8
2022-12-23T02:15:51.838Z,8.8
2022-12-23T02:16:51.939Z,8.8
2022-12-23T02:18:15.109Z,8.8
2022-12-23T02:18:51.974Z,8.8
2022-12-23T02:19:52.108Z,8.8
2022-12-23T02:21:14.524Z,8.8
2022-12-23T02:21:52.148Z,8.8
2022-12-23T02:22:52.207Z,8.8
2022-12-23T02:24:13.902Z,8.8
2022-12-23T02:24:52.297Z,8.8
2022-12-23T02:25:52.416Z,8.7
2022-12-23T02:27:15.405Z,8.7
2022-12-23T02:27:52.434Z,8.8
2022-12-23T02:28:52.474Z,8.8
2022-12-23T02:30:01.410Z,8.8
2022-12-23T02:30:52.617Z,8.8
2022-12-23T02:31:52.622Z,8.8
2022-12-23T02:33:16.450Z,8.8
2022-12-23T02:33:52.758Z,8.8
2022-12-23T02:34:52.834Z,8.8
2022-12-23T02:36:13.943Z,8.8
2022-12-23T02:36:52.912Z,8.8
2022-12-23T02:37:52.923Z,8.8
2022-12-23T02:39:16.692Z,8.8
2022-12-23T02:39:53.044Z,8.8
2022-12-23T02:40:53.114Z,8.8
2022-12-23T02:42:13.081Z,8.9
2022-12-23T02:42:53.189Z,8.8
2022-12-23T02:43:53.297Z,8.8
2022-12-23T02:45:16.899Z,8.9
2022-12-23T02:45:53.460Z,8.9
2022-12-23T02:46:53.550Z,8.8
2022-12-23T02:48:13.617Z,8.8
2022-12-23T02:48:53.699Z,8.8
2022-12-23T02:49:53.770Z,8.8
2022-12-23T02:51:19.241Z,8.8
2022-12-23T02:51:53.855Z,8.7
2022-12-23T02:52:53.905Z,8.7
2022-12-23T02:54:16.642Z,8.8
2022-12-23T02:54:54.020Z,8.8
2022-12-23T02:55:54.043Z,8.8
2022-12-23T02:57:17.545Z,8.8
2022-12-23T02:57:54.182Z,8.8
2022-12-23T02:58:54.217Z,8.9
2022-12-23T03:00:15.488Z,8.8
2022-12-23T03:00:54.340Z,8.9
2022-12-23T03:01:54.586Z,8.8
2022-12-23T03:03:17.924Z,8.8
2022-12-23T03:03:54.565Z,8.9
2022-12-23T03:04:54.564Z,8.8
2022-12-23T03:06:16.594Z,8.8
2022-12-23T03:06:54.728Z,8.8
2022-12-23T03:07:54.727Z,8.9
2022-12-23T03:09:17.452Z,8.9
2022-12-23T03:09:54.892Z,8.9
2022-12-23T03:10:54.960Z,8.9
2022-12-23T03:12:14.330Z,8.9
2022-12-23T03:12:54.997Z,8.9
2022-12-23T03:13:55.065Z,8.8
2022-12-23T03:14:55.173Z,8.8
2022-12-23T03:15:55.158Z,8.8
2022-12-23T03:16:55.234Z,8.8
2022-12-23T03:18:17.790Z,8.8
2022-12-23T03:18:55.357Z,8.8
2022-12-23T03:19:55.381Z,8.8
2022-12-23T03:21:20.998Z,8.9
2022-12-23T03:21:55.558Z,8.8
2022-12-23T03:22:55.534Z,8.9
2022-12-23T03:24:16.426Z,8.8
2022-12-23T03:24:55.657Z,8.8
2022-12-23T03:25:55.696Z,8.8
2022-12-23T03:27:22.785Z,8.8
2022-12-23T03:27:55.833Z,8.9
2022-12-23T03:28:55.879Z,8.9
2022-12-23T03:30:16.693Z,8.9
2022-12-23T03:30:56.199Z,8.8
2022-12-23T03:31:56.054Z,8.9
2022-12-23T03:33:18.755Z,8.9
2022-12-23T03:33:56.205Z,8.9
2022-12-23T03:34:56.231Z,8.8
2022-12-23T03:36:18.797Z,8.8
2022-12-23T03:36:56.394Z,8.9
2022-12-23T03:37:56.402Z,8.9
2022-12-23T03:39:24.295Z,8.9
2022-12-23T03:39:56.561Z,8.8
2022-12-23T03:40:56.598Z,8.9
2022-12-23T03:42:26.239Z,8.9
2022-12-23T03:42:56.677Z,8.8
2022-12-23T03:43:56.712Z,8.8
2022-12-23T03:45:42.702Z,8.8
2022-12-23T03:45:56.880Z,8.8
2022-12-23T03:46:56.951Z,8.9
2022-12-23T03:48:20.132Z,8.9
2022-12-23T03:48:57.037Z,8.9
2022-12-23T03:49:57.091Z,8.9
2022-12-23T03:51:23.834Z,8.9
2022-12-23T03:51:57.240Z,9
2022-12-23T03:52:57.283Z,8.9
2022-12-23T03:54:19.513Z,8.9
2022-12-23T03:54:57.447Z,8.9
2022-12-23T03:55:57.434Z,8.9
2022-12-23T03:57:28.305Z,8.8
2022-12-23T03:57:57.581Z,8.8
2022-12-23T03:58:57.598Z,8.8
2022-12-23T04:00:20.306Z,8.9
2022-12-23T04:00:57.740Z,8.9
2022-12-23T04:01:57.966Z,8.9
2022-12-23T04:03:24.783Z,8.9
2022-12-23T04:03:57.964Z,8.8
2022-12-23T04:04:58.052Z,8.9
2022-12-23T04:06:27.323Z,8.9
2022-12-23T04:06:58.141Z,8.9
2022-12-23T04:07:58.207Z,8.9
2022-12-23T04:09:26.280Z,8.8
2022-12-23T04:09:58.323Z,8.9
2022-12-23T04:10:58.366Z,8.8
2022-12-23T04:12:26.229Z,8.8
2022-12-23T04:12:58.479Z,8.9
2022-12-23T04:13:58.553Z,8.9
2022-12-23T04:15:00.050Z,8.8
2022-12-23T04:16:00.996Z,8.8
2022-12-23T04:16:58.724Z,8.9
2022-12-23T04:18:02.109Z,8.8
2022-12-23T04:18:58.820Z,8.8
2022-12-23T04:20:04.722Z,8.8
2022-12-23T04:20:58.883Z,8.9
2022-12-23T04:22:03.937Z,8.8
2022-12-23T04:22:59.017Z,8.8
2022-12-23T04:24:08.106Z,8.9
2022-12-23T04:25:17.193Z,8.8
2022-12-23T04:26:05.516Z,8.8
2022-12-23T04:26:59.249Z,8.9
2022-12-23T04:28:07.194Z,8.8
2022-12-23T04:28:59.386Z,8.8
2022-12-23T04:31:57.849Z,8.8
2022-12-23T04:32:01.574Z,8.8
2022-12-23T04:32:59.562Z,8.8
2022-12-23T04:33:59.695Z,8.8
2022-12-23T04:34:59.664Z,8.8
2022-12-23T04:35:59.781Z,8.8
2022-12-23T04:36:59.789Z,8.9
2022-12-23T04:37:59.863Z,8.8
2022-12-23T04:38:59.904Z,8.8
2022-12-23T04:39:59.923Z,8.8
2022-12-23T04:41:00.025Z,8.8
2022-12-23T04:42:00.136Z,8.9
2022-12-23T04:43:00.157Z,8.9
2022-12-23T04:44:00.205Z,8.8
2022-12-23T04:45:00.262Z,8.9
2022-12-23T04:46:00.382Z,8.8
2022-12-23T04:47:00.354Z,8.8
2022-12-23T04:48:00.468Z,8.8
2022-12-23T04:49:00.485Z,8.8
2022-12-23T04:50:00.529Z,8.8
2022-12-23T04:51:00.544Z,8.8
2022-12-23T04:52:00.647Z,8.7
2022-12-23T04:53:00.679Z,8.7
2022-12-23T04:54:00.700Z,8.7
2022-12-23T04:55:00.765Z,8.7
2022-12-23T04:56:00.805Z,8.8
2022-12-23T04:57:00.906Z,8.8
2022-12-23T04:58:00.925Z,8.8
2022-12-23T04:59:01.016Z,8.8
2022-12-23T05:00:01.069Z,8.8
2022-12-23T05:01:01.199Z,8.8
2022-12-23T05:02:01.314Z,8.8
2022-12-23T05:03:01.346Z,8.8
2022-12-23T05:04:01.303Z,8.8
2022-12-23T05:05:01.361Z,8.8
2022-12-23T05:06:01.483Z,8.8
2022-12-23T05:07:01.426Z,8.8
2022-12-23T05:08:01.510Z,8.9
2022-12-23T05:09:01.564Z,8.8
2022-12-23T05:10:01.691Z,8.8
2022-12-23T05:11:01.652Z,8.8
2022-12-23T05:12:01.737Z,8.8
2022-12-23T05:13:01.816Z,8.8
2022-12-23T05:14:01.825Z,8.8
2022-12-23T05:15:01.876Z,8.7
2022-12-23T05:16:01.945Z,8.8
2022-12-23T05:17:07.313Z,8.8
2022-12-23T05:18:02.055Z,8.8
2022-12-23T05:19:02.141Z,8.8
2022-12-23T05:20:02.164Z,8.8
2022-12-23T05:21:02.194Z,8.7
2022-12-23T05:22:02.279Z,8.7
2022-12-23T05:23:02.324Z,8.8
2022-12-23T05:24:02.379Z,8.8
2022-12-23T05:25:02.425Z,8.8
2022-12-23T05:26:02.491Z,8.8
2022-12-23T05:27:02.516Z,8.8
2022-12-23T05:28:02.608Z,8.8
2022-12-23T05:29:02.689Z,8.8
2022-12-23T05:30:02.700Z,8.8
2022-12-23T05:31:02.779Z,8.8
2022-12-23T05:32:02.913Z,8.8
2022-12-23T05:33:03.030Z,8.8
2022-12-23T05:34:06.523Z,8.8
2022-12-23T05:35:03.112Z,8.8
2022-12-23T05:36:03.137Z,8.8
2022-12-23T05:37:03.221Z,8.8
2022-12-23T05:38:04.353Z,8.8
2022-12-23T05:39:03.301Z,8.8
2022-12-23T05:40:03.363Z,8.8
2022-12-23T05:41:03.392Z,8.8
2022-12-23T05:42:03.778Z,8.8
2022-12-23T05:43:03.534Z,8.8
2022-12-23T05:44:03.568Z,8.7
2022-12-23T05:45:03.669Z,8.7
2022-12-23T05:46:03.693Z,8.8
2022-12-23T05:47:03.799Z,8.8
2022-12-23T05:48:03.781Z,8.8
2022-12-23T05:49:03.867Z,8.7
2022-12-23T05:50:03.911Z,8.7
2022-12-23T05:51:03.965Z,8.8
2022-12-23T05:52:04.024Z,8.8
2022-12-23T05:53:04.104Z,8.8
2022-12-23T05:54:04.191Z,8.7
2022-12-23T05:55:04.450Z,8.7
2022-12-23T05:56:04.376Z,8.6
2022-12-23T05:57:04.415Z,8.6
2022-12-23T05:58:04.363Z,8.6
2022-12-23T05:59:04.418Z,8.7
2022-12-23T06:00:04.442Z,8.7
2022-12-23T06:01:04.620Z,8.8
2022-12-23T06:02:04.619Z,8.7
2022-12-23T06:03:04.736Z,8.6
2022-12-23T06:04:04.759Z,8.6
2022-12-23T06:05:04.713Z,8.6
2022-12-23T06:06:04.805Z,8.7
2022-12-23T06:07:04.915Z,8.7
2022-12-23T06:08:05.040Z,8.7
2022-12-23T06:09:05.083Z,8.8
2022-12-23T06:10:05.120Z,8.7
2022-12-23T06:11:05.200Z,8.6
2022-12-23T06:12:05.269Z,8.7
2022-12-23T06:13:05.302Z,8.8
2022-12-23T06:14:05.359Z,8.8
2022-12-23T06:15:05.454Z,8.7
2022-12-23T06:16:05.542Z,8.7
2022-12-23T06:17:05.674Z,8.7
2022-12-23T06:18:05.573Z,8.8
2022-12-23T06:19:05.645Z,8.7
2022-12-23T06:20:05.698Z,8.7
2022-12-23T06:21:05.762Z,8.7
2022-12-23T06:22:05.808Z,8.6
2022-12-23T06:23:05.887Z,8.7
2022-12-23T06:24:05.981Z,8.7
2022-12-23T06:25:05.985Z,8.7
2022-12-23T06:26:06.021Z,8.7
2022-12-23T06:27:06.047Z,8.6
2022-12-23T06:28:06.088Z,8.7
2022-12-23T06:29:06.175Z,8.7
2022-12-23T06:30:06.233Z,8.7
2022-12-23T06:31:06.297Z,8.7
2022-12-23T06:32:06.374Z,8.7
2022-12-23T06:33:06.399Z,8.8
2022-12-23T06:34:06.488Z,8.7
2022-12-23T06:35:06.501Z,8.7
2022-12-23T06:36:06.562Z,8.8
2022-12-23T06:37:06.598Z,8.8
2022-12-23T06:38:10.389Z,8.8
2022-12-23T06:39:06.724Z,8.8
2022-12-23T06:40:06.783Z,8.8
2022-12-23T06:41:06.891Z,8.7
2022-12-23T06:42:06.922Z,8.7
2022-12-23T06:43:07.008Z,8.7
2022-12-23T06:44:07.111Z,8.8
2022-12-23T06:45:07.132Z,8.9
2022-12-23T06:46:07.201Z,8.8
2022-12-23T06:47:07.254Z,8.8
2022-12-23T06:48:07.338Z,8.8
2022-12-23T06:49:11.030Z,8.7
2022-12-23T06:50:07.446Z,8.8
2022-12-23T06:51:07.489Z,8.7
2022-12-23T06:52:07.550Z,8.7
2022-12-23T06:53:07.610Z,8.7
2022-12-23T06:54:07.664Z,8.8
2022-12-23T06:55:07.704Z,8.8
2022-12-23T06:56:07.758Z,8.8
2022-12-23T06:57:07.803Z,8.8
2022-12-23T06:58:07.859Z,8.8
2022-12-23T06:59:07.927Z,8.8
2022-12-23T07:00:07.980Z,8.7
2022-12-23T07:01:12.689Z,8.8
2022-12-23T07:02:08.267Z,8.8
2022-12-23T07:03:08.258Z,8.8
2022-12-23T07:04:08.239Z,8.8
2022-12-23T07:05:08.303Z,8.8
2022-12-23T07:06:08.314Z,8.7
2022-12-23T07:07:14.364Z,8.8
2022-12-23T07:08:08.524Z,8.7
2022-12-23T07:09:08.526Z,8.7
2022-12-23T07:10:08.530Z,8.7
2022-12-23T07:11:08.661Z,8.8
2022-12-23T07:12:09.153Z,8.8
2022-12-23T07:13:08.697Z,8.8
2022-12-23T07:14:10.798Z,8.8
2022-12-23T07:15:08.846Z,8.8
2022-12-23T07:16:08.966Z,8.8
2022-12-23T07:17:09.207Z,8.8
2022-12-23T07:18:09.166Z,8.8
2022-12-23T07:19:09.293Z,8.8
2022-12-23T07:20:09.596Z,8.8
2022-12-23T07:21:15.697Z,8.8
2022-12-23T07:22:09.557Z,8.7
2022-12-23T07:23:09.827Z,8.7
2022-12-23T07:24:09.664Z,8.7
2022-12-23T07:25:14.626Z,8.6
2022-12-23T07:26:10.029Z,8.6
2022-12-23T07:27:09.813Z,8.6
2022-12-23T07:28:09.845Z,8.6
2022-12-23T07:29:09.917Z,8.6
2022-12-23T07:30:09.918Z,8.6
2022-12-23T07:31:09.923Z,8.6
2022-12-23T07:32:10.020Z,8.6
2022-12-23T07:33:10.027Z,8.7
2022-12-23T07:34:10.099Z,8.7
2022-12-23T07:35:10.176Z,8.7
2022-12-23T07:36:10.383Z,8.7
2022-12-23T07:37:10.380Z,8.7
2022-12-23T07:38:10.327Z,8.6
2022-12-23T07:39:10.430Z,8.6
2022-12-23T07:40:10.463Z,8.6
2022-12-23T07:41:10.531Z,8.7
2022-12-23T07:42:43.183Z,8.6
2022-12-23T07:43:10.612Z,8.6
2022-12-23T07:44:24.446Z,8.7
2022-12-23T07:45:22.062Z,8.7
2022-12-23T07:46:10.941Z,8.6
2022-12-23T07:47:10.851Z,8.7
2022-12-23T07:48:12.094Z,8.7
2022-12-23T07:55:31.071Z,8.6
2022-12-23T07:57:35.152Z,8.6
2022-12-23T08:03:38.799Z,8.7
2022-12-23T08:05:38.870Z,8.7
2022-12-23T08:06:38.955Z,8.7
2022-12-23T08:07:39.019Z,8.7
2022-12-23T08:08:39.047Z,8.7
2022-12-23T08:09:39.111Z,8.7
2022-12-23T08:10:44.555Z,8.8
2022-12-23T08:11:39.202Z,8.8
2022-12-23T08:12:39.254Z,8.8
2022-12-23T08:13:39.320Z,8.7
2022-12-23T08:14:39.384Z,8.8
2022-12-23T08:15:39.433Z,8.8
2022-12-23T08:16:43.506Z,8.7
2022-12-23T08:17:39.509Z,8.7
2022-12-23T08:18:39.590Z,8.7
2022-12-23T08:19:39.596Z,8.7
2022-12-23T08:20:39.788Z,8.7
2022-12-23T08:21:39.755Z,8.8
2022-12-23T08:22:39.798Z,8.8
2022-12-23T08:23:39.920Z,8.8
2022-12-23T08:24:39.907Z,8.8
2022-12-23T08:25:39.970Z,8.8
2022-12-23T08:26:40.038Z,8.8
2022-12-23T08:27:40.067Z,8.7
2022-12-23T08:28:40.128Z,8.7
2022-12-23T08:29:40.195Z,8.7
2022-12-23T08:30:40.388Z,8.7
2022-12-23T08:31:40.286Z,8.7
2022-12-23T08:32:40.403Z,8.7
2022-12-23T08:33:40.421Z,8.6
2022-12-23T08:34:40.485Z,8.7
2022-12-23T08:35:40.503Z,8.7
2022-12-23T08:36:40.639Z,8.7
2022-12-23T08:37:40.699Z,8.7
2022-12-23T08:38:40.787Z,8.7
2022-12-23T08:39:40.809Z,8.6
2022-12-23T08:40:40.896Z,8.7
2022-12-23T08:41:40.989Z,8.7
2022-12-23T08:42:41.013Z,8.7
2022-12-23T08:43:41.058Z,8.7
2022-12-23T08:45:33.625Z,8.7
2022-12-23T08:45:41.656Z,8.6
2022-12-23T08:46:41.247Z,8.6
2022-12-23T08:47:41.352Z,8.6
2022-12-23T08:48:45.287Z,8.7
2022-12-23T08:49:41.356Z,8.7
2022-12-23T08:50:41.854Z,8.7
2022-12-23T08:51:41.740Z,8.7
2022-12-23T08:52:41.510Z,8.7
2022-12-23T08:53:41.632Z,8.7
2022-12-23T08:54:41.769Z,8.7
2022-12-23T08:55:41.770Z,8.7
2022-12-23T08:56:41.822Z,8.7
2022-12-23T08:57:41.911Z,8.7
2022-12-23T08:58:42.081Z,8.6
2022-12-23T08:59:41.955Z,8.7
2022-12-23T09:00:42.009Z,8.6
2022-12-23T09:01:42.239Z,8.6
2022-12-23T09:02:42.380Z,8.6
2022-12-23T09:03:42.479Z,8.6
2022-12-23T09:04:42.301Z,8.6
2022-12-23T09:05:42.263Z,8.6
2022-12-23T09:06:42.472Z,8.6
2022-12-23T09:07:42.376Z,8.6
2022-12-23T09:08:42.461Z,8.6
2022-12-23T09:09:42.517Z,8.6
2022-12-23T09:10:42.567Z,8.6
2022-12-23T09:11:42.637Z,8.6
2022-12-23T09:12:42.658Z,8.6
2022-12-23T09:13:44.048Z,8.6
2022-12-23T09:14:43.213Z,8.6
2022-12-23T09:15:43.160Z,8.6
2022-12-23T09:16:42.870Z,8.6
2022-12-23T09:17:42.902Z,8.6
2022-12-23T09:18:42.995Z,8.6
2022-12-23T09:19:47.219Z,8.6
2022-12-23T09:20:43.158Z,8.7
2022-12-23T09:21:45.295Z,8.7
2022-12-23T09:28:13.742Z,8.8
2022-12-23T09:29:13.362Z,8.7
2022-12-23T09:30:12.282Z,8.8
2022-12-23T09:31:12.259Z,8.8
2022-12-23T09:32:12.198Z,8.8
2022-12-23T09:33:12.272Z,8.8
2022-12-23T09:34:12.389Z,8.8
2022-12-23T09:35:12.665Z,8.8
2022-12-23T09:36:12.663Z,8.8
2022-12-23T09:37:12.584Z,8.8
2022-12-23T09:38:12.554Z,8.8
2022-12-23T09:39:12.602Z,8.7
2022-12-23T09:40:12.911Z,8.8
2022-12-23T09:41:12.700Z,8.8
2022-12-23T09:42:12.742Z,8.8
2022-12-23T09:43:17.467Z,8.8
2022-12-23T09:44:12.883Z,8.8
2022-12-23T09:45:13.071Z,8.8
2022-12-23T09:46:13.040Z,8.8
2022-12-23T09:47:13.079Z,8.8
2022-12-23T09:48:13.181Z,8.8
2022-12-23T09:49:13.717Z,8.8
2022-12-23T09:50:14.162Z,8.8
2022-12-23T09:51:13.985Z,8.8
2022-12-23T09:52:13.833Z,8.8
2022-12-23T09:53:15.453Z,8.7
2022-12-23T09:54:17.006Z,8.7
2022-12-23T09:55:33.577Z,8.7
2022-12-23T09:56:13.678Z,8.7
2022-12-23T09:57:18.164Z,8.7
2022-12-23T09:58:18.254Z,8.7
2022-12-23T09:59:20.931Z,8.7
2022-12-23T10:00:18.891Z,8.6
2022-12-23T10:01:21.085Z,8.6
2022-12-23T10:02:25.594Z,8.6
2022-12-23T10:03:23.140Z,8.6
2022-12-23T10:04:23.571Z,8.6
2022-12-23T10:05:28.215Z,8.6
2022-12-23T10:06:23.029Z,8.6
2022-12-23T10:07:18.608Z,8.7
2022-12-23T10:08:18.637Z,8.6
2022-12-23T10:09:19.209Z,8.6
2022-12-23T10:10:38.521Z,8.7
2022-12-23T10:12:23.747Z,8.6
2022-12-23T10:13:19.053Z,8.6
2022-12-23T10:14:19.041Z,8.6
2022-12-23T10:15:20.315Z,8.6
2022-12-23T10:16:19.346Z,8.6
2022-12-23T10:17:19.945Z,8.6
2022-12-23T10:18:22.003Z,8.6
2022-12-23T10:19:19.624Z,8.6
2022-12-23T10:20:19.558Z,8.6
2022-12-23T10:21:19.812Z,8.6
2022-12-23T10:22:19.580Z,8.6
2022-12-23T10:23:19.788Z,8.6
2022-12-23T10:24:19.736Z,8.6
2022-12-23T10:25:20.214Z,8.6
2022-12-23T10:26:19.856Z,8.7
2022-12-23T10:27:20.321Z,8.7
2022-12-23T10:28:19.955Z,8.6
2022-12-23T10:29:20.163Z,8.7
2022-12-23T10:30:51.224Z,8.6
2022-12-23T10:31:42.222Z,8.6
2022-12-23T10:32:20.318Z,8.6
2022-12-23T10:33:20.396Z,8.6
2022-12-23T10:34:20.385Z,8.6
2022-12-23T10:35:20.886Z,8.6
2022-12-23T10:36:21.413Z,8.5
2022-12-23T10:37:22.129Z,8.5
2022-12-23T10:38:20.593Z,8.5
2022-12-23T10:39:21.951Z,8.6
2022-12-23T10:40:20.811Z,8.6
2022-12-23T10:41:20.890Z,8.6
2022-12-23T10:42:22.246Z,8.6
2022-12-23T10:43:20.966Z,8.5
2022-12-23T10:44:25.923Z,8.5
2022-12-23T10:45:27.223Z,8.6
2022-12-23T10:46:21.431Z,8.6
2022-12-23T10:47:21.102Z,8.6
2022-12-23T10:48:24.129Z,8.6
2022-12-23T10:49:22.489Z,8.5
2022-12-23T10:50:40.541Z,8.5
2022-12-23T10:51:22.886Z,8.6
2022-12-23T10:52:21.447Z,8.6
2022-12-23T10:54:22.759Z,8.6
2022-12-23T10:55:22.211Z,8.6
2022-12-23T10:56:21.839Z,8.6
2022-12-23T10:57:23.331Z,8.6
2022-12-23T10:58:22.389Z,8.6
2022-12-23T10:59:22.240Z,8.6
2022-12-23T11:00:22.791Z,8.6
2022-12-23T11:01:27.790Z,8.6
2022-12-23T11:02:22.062Z,8.5
2022-12-23T11:03:23.436Z,8.5
2022-12-23T11:04:21.996Z,8.6
2022-12-23T11:05:22.343Z,8.6
2022-12-23T11:06:23.208Z,8.6
2022-12-23T11:07:46.454Z,8.6
2022-12-23T11:08:22.184Z,8.6
2022-12-23T11:09:23.030Z,8.6
2022-12-23T11:10:22.310Z,8.6
2022-12-23T11:11:22.332Z,8.6
2022-12-23T11:12:22.385Z,8.6
2022-12-23T11:13:22.515Z,8.6
2022-12-23T11:14:23.815Z,8.6
2022-12-23T11:15:23.523Z,8.6
2022-12-23T11:16:27.631Z,8.6
2022-12-23T11:17:22.564Z,8.7
2022-12-23T11:18:22.930Z,8.7
2022-12-23T11:19:22.982Z,8.7
2022-12-23T11:20:24.193Z,8.7
2022-12-23T11:21:22.852Z,8.6
2022-12-23T11:22:28.036Z,8.7
2022-12-23T11:23:22.844Z,8.7
2022-12-23T11:24:22.791Z,8.7
2022-12-23T11:25:32.939Z,8.8
2022-12-23T11:26:22.923Z,8.7
2022-12-23T11:27:23.209Z,8.7
2022-12-23T11:28:22.997Z,8.7
2022-12-23T11:29:24.637Z,8.8
2022-12-23T11:30:23.051Z,8.7
2022-12-23T11:31:24.582Z,8.7
2022-12-23T11:32:23.129Z,8.7
2022-12-23T11:33:25.325Z,8.7
2022-12-23T11:34:23.167Z,8.7
2022-12-23T11:35:23.321Z,8.7
2022-12-23T11:36:25.036Z,8.7
2022-12-23T11:37:23.218Z,8.7
2022-12-23T11:38:23.278Z,8.7
2022-12-23T11:39:23.309Z,8.7
2022-12-23T11:40:23.391Z,8.7
2022-12-23T11:41:23.422Z,8.7
2022-12-23T11:42:23.489Z,8.9
2022-12-23T11:43:23.502Z,9.8
2022-12-23T11:44:23.527Z,10
2022-12-23T11:45:31.187Z,9.4
2022-12-23T11:46:23.649Z,9.1
2022-12-23T11:47:23.924Z,8.8
2022-12-23T11:48:29.029Z,8.6
2022-12-23T11:49:23.728Z,8.6
2022-12-23T11:50:23.884Z,8.6
2022-12-23T11:51:24.573Z,8.6
2022-12-23T11:52:24.058Z,8.6
2022-12-23T11:53:25.970Z,8.5
2022-12-23T11:54:24.169Z,8.6
2022-12-23T11:55:24.993Z,8.6
2022-12-23T11:56:24.268Z,8.5
2022-12-23T11:57:25.001Z,8.5
2022-12-23T11:58:24.421Z,8.5
2022-12-23T11:59:25.306Z,8.5
2022-12-23T12:00:24.509Z,8.5
2022-12-23T12:01:24.709Z,8.5
2022-12-23T12:02:29.693Z,8.6
2022-12-23T12:03:25.543Z,8.5
2022-12-23T12:04:24.787Z,8.5
2022-12-23T12:05:37.340Z,8.5
2022-12-23T12:06:24.899Z,8.5
2022-12-23T12:07:24.916Z,8.5
2022-12-23T12:08:25.010Z,8.5
2022-12-23T12:09:25.254Z,8.4
2022-12-23T12:10:25.110Z,8.4
2022-12-23T12:11:25.251Z,8.4
2022-12-23T12:12:35.195Z,8.4
2022-12-23T12:13:25.505Z,8.4
2022-12-23T12:14:25.297Z,8.4
2022-12-23T12:15:25.471Z,8.4
2022-12-23T12:16:35.438Z,8.5
2022-12-23T12:17:28.485Z,8.4
2022-12-23T12:18:26.092Z,8.4
2022-12-23T12:19:27.079Z,8.4
2022-12-23T12:20:25.599Z,8.4
2022-12-23T12:21:29.293Z,8.4
2022-12-23T12:22:25.721Z,8.4
2022-12-23T12:23:31.068Z,8.3
2022-12-23T12:24:26.175Z,8.3
2022-12-23T12:25:33.915Z,8.3
2022-12-23T12:26:25.860Z,8.3
2022-12-23T12:27:26.531Z,8.3
2022-12-23T12:28:25.969Z,8.3
2022-12-23T12:29:27.309Z,8.3
2022-12-23T12:30:26.000Z,8.3
2022-12-23T12:31:26.659Z,8.3
2022-12-23T12:32:26.023Z,8.3
2022-12-23T12:33:28.366Z,8.3
2022-12-23T12:34:26.115Z,8.3
2022-12-23T12:35:29.756Z,8.3
2022-12-23T12:36:26.203Z,8.3
2022-12-23T12:37:27.394Z,8.3
2022-12-23T12:38:26.240Z,8.3
2022-12-23T12:39:27.165Z,8.2
2022-12-23T12:40:26.328Z,8.3
2022-12-23T12:41:26.653Z,8.3
2022-12-23T12:42:26.378Z,8.3
2022-12-23T12:43:26.792Z,8.3
2022-12-23T12:44:26.469Z,8.3
2022-12-23T12:45:29.666Z,8.3
2022-12-23T12:46:26.613Z,8.3
2022-12-23T12:47:52.470Z,8.3
2022-12-23T12:48:27.393Z,8.3
2022-12-23T12:49:26.631Z,8.3
2022-12-23T12:50:26.645Z,8.3
2022-12-23T12:51:30.972Z,8.3
2022-12-23T12:52:26.739Z,8.3
2022-12-23T12:53:26.784Z,8.3
2022-12-23T12:54:27.022Z,8.3
2022-12-23T12:55:27.051Z,8.3
2022-12-23T12:56:26.878Z,8.2
2022-12-23T12:57:40.161Z,8.3
2022-12-23T12:58:27.794Z,8.2
2022-12-23T13:00:00.028Z,8.2
2022-12-23T13:01:15.382Z,8.2
2022-12-23T13:01:27.428Z,8.3
2022-12-23T13:02:27.323Z,8.3
2022-12-23T13:03:27.419Z,8.2
2022-12-23T13:04:27.345Z,8.3
2022-12-23T13:05:27.539Z,8.3
2022-12-23T13:06:32.844Z,8.3
2022-12-23T13:07:28.199Z,8.3
2022-12-23T13:08:27.625Z,8.3
2022-12-23T13:09:27.674Z,8.3
2022-12-23T13:10:27.702Z,8.3
2022-12-23T13:11:28.630Z,8.3
2022-12-23T13:12:27.779Z,8.3
2022-12-23T13:13:27.873Z,8.3
2022-12-23T13:14:27.978Z,8.3
2022-12-23T13:15:28.010Z,8.3
2022-12-23T13:16:28.331Z,8.3
2022-12-23T13:17:28.134Z,8.3
2022-12-23T13:18:28.220Z,8.3
2022-12-23T13:19:28.282Z,8.3
2022-12-23T13:20:28.301Z,8.3
2022-12-23T13:21:28.305Z,8.3
2022-12-23T13:22:28.360Z,8.3
2022-12-23T13:23:44.942Z,8.3
2022-12-23T13:24:28.481Z,8.3
2022-12-23T13:25:28.708Z,8.3
2022-12-23T13:26:28.551Z,8.3
2022-12-23T13:27:28.680Z,8.3
2022-12-23T13:28:28.693Z,8.3
2022-12-23T13:29:28.724Z,8.4
2022-12-23T13:30:28.798Z,8.4
2022-12-23T13:31:28.904Z,8.4
2022-12-23T13:32:29.732Z,8.4
2022-12-23T13:33:28.965Z,8.4
2022-12-23T13:34:28.981Z,8.4
2022-12-23T13:35:29.046Z,8.4
2022-12-23T13:36:29.142Z,8.4
2022-12-23T13:37:29.103Z,8.4
2022-12-23T13:38:29.131Z,8.4
2022-12-23T13:39:29.184Z,8.3
2022-12-23T13:40:29.219Z,8.4
2022-12-23T13:41:29.230Z,8.4
2022-12-23T13:42:29.281Z,8.5
2022-12-23T13:43:29.370Z,8.5
2022-12-23T13:44:29.335Z,8.5
2022-12-23T13:45:29.382Z,8.6
2022-12-23T13:46:29.413Z,8.5
2022-12-23T13:47:29.434Z,8.5
2022-12-23T13:48:29.508Z,8.5
2022-12-23T13:49:29.499Z,8.6
2022-12-23T13:50:29.538Z,8.6
2022-12-23T13:51:29.579Z,8.6
2022-12-23T13:52:29.649Z,8.5
2022-12-23T13:53:29.639Z,8.5
2022-12-23T13:54:29.668Z,8.5
2022-12-23T13:55:29.707Z,8.5
2022-12-23T13:56:29.963Z,8.5
2022-12-23T13:57:29.786Z,8.4
2022-12-23T13:58:29.810Z,8.5
2022-12-23T13:59:30.091Z,8.5
2022-12-23T14:00:29.901Z,8.5
2022-12-23T14:01:29.991Z,8.5
2022-12-23T14:02:29.954Z,8.5
2022-12-23T14:03:30.030Z,8.5
2022-12-23T14:04:35.073Z,8.5
2022-12-23T14:05:30.076Z,8.5
2022-12-23T14:06:30.368Z,8.6
2022-12-23T14:07:30.081Z,8.6
2022-12-23T14:08:30.102Z,8.6
2022-12-23T14:09:30.131Z,8.6